Latest Weather Observations for Yulara

IDD60801

Issued at 8:01 am CST Tuesday 23 December 2014 (issued every 30 minutes, with the page automatically refreshed every 10 minutes)

About weather observations | Map of weather stations | Latest weather observations for NT | Other Formats
Station Details ID: 015635 Name: YULARA AIRPORT Lat: -25.19 Lon: 130.97 Height: 492.0 m
Data from the previous 72 hours. | See also: Recent months at Yulara
Date/Time
CST
Temp
°C
App
Temp
°C
Dew
Point
Rel
Hum
%
Delta-T
°C
Wind Press
QNH
hPa
Press
MSL
hPa
Rain
since 9 am
mm
Dir
 
Spd
km/h
Gust
km/h
Spd
kts
Gust
kts
23/08:00am 24.6 22.5 14.7 54 6.0 SSE 19 26 10 14 1014.7 1011.1 0.8
23/07:30am 24.4 22.3 15.1 56 5.7 SSE 20 28 11 15 1014.4 1010.9 0.8
23/07:00am 24.2 22.7 15.4 58 5.4 SSE 17 24 9 13 1014.3 1010.8 0.8
23/06:30am 24.0 23.5 15.8 60 5.1 SSE 13 20 7 11 1013.9 1010.4 0.8
23/06:00am 24.0 24.4 16.3 62 4.8 SSE 9 13 5 7 1013.5 1009.9 0.8
23/05:30am 24.5 24.4 16.0 59 5.3 SSE 11 17 6 9 1013.0 1009.4 0.8
23/05:00am 24.6 24.7 16.6 61 5.0 SSE 11 15 6 8 1012.6 1009.0 0.8
23/04:30am 24.8 24.5 16.5 60 5.2 SSE 13 19 7 10 1012.1 1008.6 0.8
23/04:00am 24.5 24.3 17.5 65 4.4 S 15 20 8 11 1011.6 1008.0 0.8
23/03:30am 25.0 24.4 17.5 63 4.8 SSE 17 22 9 12 1011.3 1007.7 0.8
23/03:00am 25.0 24.8 17.7 64 4.7 SSE 15 28 8 15 1011.3 1007.7 0.8
23/02:30am 25.0 28.6 22.3 85 1.8 S 7 9 4 5 1011.1 1007.5 0.8
23/02:00am 24.7 30.0 23.1 91 1.1 CALM 0 0 0 0 1011.2 1007.6 0.8
23/01:30am 24.8 29.9 23.4 92 1.0 SSE 2 9 1 5 1011.2 1007.6 0.8
23/01:00am 24.8 28.7 22.9 89 1.3 SSE 7 11 4 6 1011.1 1007.5 0.8
23/12:30am 24.8 28.7 23.6 93 0.8 SE 9 11 5 6 1011.4 1007.8 0.8
23/12:00am 24.7 29.8 22.6 88 1.4 CALM 0 0 0 0 1012.1 1008.6 0.8
 
Date/Time
CST
Temp
°C
App
Temp
°C
Dew
Point
Rel
Hum
%
Delta-T
°C
Wind Press
QNH
hPa
Press
MSL
hPa
Rain
since 9 am
mm
Dir
 
Spd
km/h
Gust
km/h
Spd
kts
Gust
kts
22/11:30pm 24.7 29.8 22.6 88 1.4 CALM 0 0 0 0 1012.6 1009.0 0.8
22/11:00pm 24.8 29.6 22.1 85 1.8 CALM 0 0 0 0 1012.3 1008.8 0.8
22/10:30pm 24.9 28.2 21.8 83 2.1 SE 7 11 4 6 1012.2 1008.7 0.6
22/10:00pm 24.9 27.8 21.8 83 2.1 SE 9 11 5 6 1011.7 1008.1 0.6
22/09:30pm 24.6 28.9 21.1 81 2.3 CALM 0 0 0 0 1011.7 1008.1 0.6
22/09:00pm 24.4 27.5 21.5 84 2.0 NE 7 11 4 6 1011.8 1008.3 0.6
22/08:30pm 24.7 27.5 21.6 83 2.1 NE 9 13 5 7 1011.2 1007.6 0.6
22/08:00pm 24.4 26.0 21.5 84 2.0 N 15 22 8 12 1010.4 1006.8 0.6
22/07:30pm 24.2 25.5 21.7 86 1.7 N 17 26 9 14 1009.9 1006.3 0.4
22/07:00pm 27.4 26.0 18.9 59 5.6 NNE 24 33 13 18 1009.5 1005.9 0.0
22/06:49pm 29.0 26.9 17.2 49 7.6 ESE 24 35 13 19 1009.1 1005.5 0.0
22/06:30pm 34.0 30.7 15.0 32 12.0 SSE 26 35 14 19 1007.8 1004.2 0.0
22/06:00pm 34.7 32.6 14.6 30 12.7 SSW 19 24 10 13 1007.5 1003.9 0.0
22/05:30pm 35.5 32.8 14.7 28 13.2 S 22 33 12 18 1007.1 1003.5 0.0
22/05:00pm 35.9 33.0 15.1 29 13.3 SSW 24 35 13 19 1006.7 1003.1 0.0
22/04:30pm 35.7 32.0 14.9 29 13.2 SSW 28 41 15 22 1006.9 1003.3 0.0
22/04:00pm 35.3 32.0 15.1 30 12.8 SW 26 32 14 17 1007.4 1003.8 0.0
22/03:30pm 36.5 32.8 15.0 27 13.7 SW 28 39 15 21 1007.5 1003.9 0.0
22/03:00pm 36.7 34.6 14.6 26 14.0 W 19 39 10 21 1007.5 1003.9 0.0
22/02:30pm 35.7 34.1 14.9 29 13.2 SW 17 24 9 13 1008.0 1004.4 0.0
22/02:00pm 36.2 36.1 15.9 30 13.1 WSW 11 20 6 11 1008.5 1004.9 0.0
22/01:30pm 36.7 36.0 16.3 30 13.3 WNW 15 22 8 12 1008.9 1005.3 0.0
22/01:00pm 35.1 35.0 15.9 31 12.3 SSW 11 19 6 10 1009.4 1005.8 0.0
22/12:30pm 33.8 33.8 16.2 35 11.3 WNW 11 24 6 13 1009.9 1006.3 0.0
22/12:00pm 33.1 34.7 16.9 38 10.5 SSE 4 11 2 6 1010.5 1006.9 0.0
22/11:30am 31.8 32.7 16.5 39 9.8 NNE 7 13 4 7 1010.9 1007.3 0.0
22/11:00am 31.2 32.1 17.5 44 8.9 NNW 9 19 5 10 1011.2 1007.6 0.0
22/10:30am 29.6 31.4 17.4 47 7.9 N 4 11 2 6 1011.3 1007.7 0.0
22/10:00am 29.1 30.4 18.5 52 6.9 NNE 9 15 5 8 1011.3 1007.7 0.0
22/09:30am 27.4 28.8 17.8 55 6.2 NNE 7 15 4 8 1011.2 1007.6 0.0
22/09:00am 27.1 27.9 18.1 58 5.8 ENE 11 17 6 9 1011.1 1007.5 1.8
22/08:30am 25.8 26.6 18.2 63 4.9 E 11 15 6 8 1010.7 1007.1 1.6
22/08:00am 25.5 26.5 19.4 69 4.0 ESE 13 19 7 10 1010.1 1006.6 1.6
22/07:30am 24.1 25.7 19.2 74 3.2 ESE 9 15 5 8 1010.2 1006.7 1.6
22/07:00am 22.5 23.7 19.1 81 2.2 ESE 11 17 6 9 1010.4 1006.8 1.6
22/06:30am 22.3 23.3 19.5 84 1.8 ESE 13 20 7 11 1009.8 1006.2 1.6
22/06:00am 22.0 23.3 19.4 85 1.7 SE 11 15 6 8 1009.9 1006.3 1.6
22/05:30am 22.1 21.8 19.1 83 1.9 SSE 19 26 10 14 1009.6 1006.0 1.6
22/05:00am 21.8 21.8 19.0 84 1.8 SE 17 24 9 13 1009.8 1006.2 1.6
22/04:38am 21.3 18.9 18.3 83 1.9 SSE 28 43 15 23 1009.9 1006.3 1.6
22/04:30am 21.2 18.1 18.4 84 1.8 SSE 32 46 17 25 1009.8 1006.2 1.6
22/04:24am 21.2 18.2 18.6 85 1.7 SSE 32 43 17 23 1009.6 1006.0 1.6
22/04:00am 21.8 20.6 18.4 81 2.2 SSE 22 35 12 19 1011.2 1007.6 0.8
22/03:54am 21.5 18.5 18.7 84 1.8 S 32 50 17 27 1011.0 1007.4 0.8
22/03:46am 21.7 18.3 18.1 80 2.3 S 33 50 18 27 1010.2 1006.7 0.8
22/03:34am 22.0 18.2 18.0 78 2.5 S 35 52 19 28 1010.1 1006.6 0.6
22/03:30am 22.3 18.4 18.7 80 2.3 SSW 37 54 20 29 1010.2 1006.7 0.4
22/03:00am 24.1 19.7 18.5 71 3.6 SSW 39 65 21 35 1009.5 1005.9 0.2
22/02:32am 24.9 21.4 18.8 69 4.0 SSW 35 54 19 29 1009.2 1005.6 0.2
22/02:30am 24.9 20.7 18.8 69 4.0 SSW 39 54 21 29 1009.2 1005.6 0.2
22/02:02am 26.5 22.4 17.3 57 5.9 SSW 35 57 19 31 1008.8 1005.2 0.2
22/02:00am 27.6 24.8 17.2 53 6.6 SSW 28 56 15 30 1008.9 1005.3 0.2
22/01:57am 28.2 26.8 17.1 51 7.1 SSW 20 54 11 29 1008.7 1005.1 0.2
22/01:30am 27.9 27.7 17.7 53 6.6 SW 15 20 8 11 1008.3 1004.7 0.2
22/01:00am 26.7 30.1 19.3 64 4.9 CALM 0 0 0 0 1008.5 1004.9 0.2
22/12:30am 26.6 29.6 19.2 64 4.9 WSW 2 6 1 3 1008.7 1005.1 0.2
22/12:00am 26.5 29.8 19.1 64 4.9 CALM 0 4 0 2 1008.9 1005.3 0.2
 
Date/Time
CST
Temp
°C
App
Temp
°C
Dew
Point
Rel
Hum
%
Delta-T
°C
Wind Press
QNH
hPa
Press
MSL
hPa
Rain
since 9 am
mm
Dir
 
Spd
km/h
Gust
km/h
Spd
kts
Gust
kts
21/11:30pm 26.7 28.5 18.8 62 5.2 WSW 7 9 4 5 1009.2 1005.6 0.2
21/11:00pm 26.6 28.4 18.7 62 5.1 WSW 7 11 4 6 1009.4 1005.8 0.2
21/10:30pm 27.1 30.1 18.4 59 5.7 CALM 0 0 0 0 1008.9 1005.3 0.2
21/10:00pm 28.3 29.4 17.2 51 7.1 N 7 9 4 5 1008.5 1004.9 0.2
21/09:30pm 28.6 28.6 17.2 50 7.3 NNE 13 17 7 9 1008.4 1004.8 0.2
21/09:00pm 28.8 28.1 17.3 49 7.4 NNE 17 22 9 12 1008.3 1004.7 0.2
21/08:30pm 29.2 27.6 17.4 49 7.6 NNE 22 30 12 16 1008.0 1004.4 0.2
21/08:00pm 29.7 28.2 16.8 45 8.3 NNE 20 30 11 16 1008.3 1004.7 0.2
21/07:30pm 31.7 29.3 14.4 35 10.8 NNE 20 33 11 18 1007.8 1004.2 0.2
21/07:00pm 33.0 32.9 15.0 33 11.3 NE 9 13 5 7 1007.3 1003.7 0.2
21/06:30pm 33.3 31.5 14.4 32 11.8 NNE 17 20 9 11 1007.1 1003.5 0.2
21/06:00pm 34.5 31.9 13.9 29 12.9 NNE 20 33 11 18 1007.1 1003.5 0.2
21/05:30pm 34.3 35.8 14.7 30 12.4 CALM 0 7 0 4 1007.2 1003.6 0.2
21/05:00pm 33.2 31.7 15.2 33 11.4 SSW 17 24 9 13 1007.7 1004.1 0.2
21/04:30pm 33.3 31.6 14.8 32 11.7 SSW 17 22 9 12 1008.0 1004.4 0.2
21/04:00pm 34.4 33.3 14.3 30 12.6 SW 13 20 7 11 1008.4 1004.8 0.2
21/03:30pm 34.3 32.2 14.7 30 12.4 W 19 32 10 17 1008.7 1005.1 0.2
21/03:00pm 33.9 31.5 16.3 35 11.3 NW 24 33 13 18 1009.2 1005.6 0.2
21/02:30pm 32.6 28.7 15.6 36 10.8 WSW 30 48 16 26 1009.0 1005.4 0.2
21/02:23pm 33.3 30.1 15.3 34 11.4 WNW 26 52 14 28 1009.1 1005.5 0.2
21/02:00pm 36.2 35.1 14.2 26 13.9 W 13 22 7 12 1009.1 1005.5 0.2
21/01:30pm 36.8 35.8 14.7 26 14.1 NNW 13 35 7 19 1009.7 1006.1 0.2
21/01:00pm 35.7 34.4 14.9 29 13.2 NW 15 26 8 14 1010.2 1006.7 0.2
21/12:30pm 34.5 33.1 14.4 30 12.6 NW 15 24 8 13 1010.8 1007.2 0.2
21/12:00pm 33.4 33.3 14.0 31 12.1 NNE 7 17 4 9 1011.4 1007.8 0.2
21/11:30am 32.8 33.5 14.4 33 11.5 WNW 4 13 2 7 1011.7 1008.1 0.2
21/11:00am 31.4 31.3 15.0 37 10.3 W 9 15 5 8 1012.2 1008.7 0.2
21/10:30am 30.0 30.5 17.5 47 8.1 W 11 19 6 10 1012.6 1009.0 0.2
21/10:00am 28.4 30.4 19.1 57 6.1 WSW 7 13 4 7 1012.8 1009.2 0.0
21/09:30am 26.8 29.6 20.4 68 4.3 WSW 6 13 3 7 1012.9 1009.3 0.0
21/09:00am 25.5 28.8 20.7 75 3.2 SSW 4 20 2 11 1012.8 1009.2 3.8
21/08:30am 25.1 26.3 19.9 73 3.4 WSW 13 17 7 9 1013.2 1009.6 3.8
21/08:00am 24.9 26.6 20.2 75 3.1 WSW 11 17 6 9 1013.1 1009.5 3.8
21/07:30am 23.3 25.2 20.6 85 1.8 SW 11 15 6 8 1012.5 1008.9 3.8
21/07:00am 24.5 27.3 18.9 71 3.6 ESE 2 9 1 5 1011.7 1008.1 3.8
21/06:40am 23.1 25.3 19.5 80 2.3 ESE 7 13 4 7 1012.0 1008.5 3.8
21/06:30am 22.9 25.5 19.3 80 2.3 - 4 20 2 11 1011.9 1008.4 3.6
21/06:21am 22.5 20.9 18.3 77 2.7 WSW 24 39 13 21 1012.1 1008.6 3.4
21/06:00am 24.2 28.4 20.9 82 2.2 CALM 0 0 0 0 1010.9 1007.3 3.0
21/05:30am 24.3 27.4 18.7 71 3.6 CALM 0 0 0 0 1010.2 1006.7 3.0
21/05:00am 24.1 26.2 19.4 75 3.1 SW 7 7 4 4 1010.5 1006.9 3.0
21/04:30am 24.0 26.2 19.7 77 2.8 SW 7 9 4 5 1010.4 1006.8 3.0
21/04:00am 23.6 26.1 20.3 82 2.2 WSW 7 9 4 5 1010.2 1006.7 3.0
21/03:30am 24.2 28.2 20.5 80 2.5 CALM 0 0 0 0 1009.9 1006.3 3.0
21/03:00am 24.1 28.0 20.4 80 2.5 CALM 0 6 0 3 1010.0 1006.5 3.0
21/02:30am 24.3 28.3 20.6 80 2.5 CALM 0 0 0 0 1010.2 1006.7 3.0
21/02:00am 24.9 28.7 20.2 75 3.1 CALM 0 0 0 0 1009.9 1006.3 3.0
21/01:30am 25.4 27.8 18.8 67 4.3 ESE 4 11 2 6 1010.1 1006.6 3.0
21/01:00am 26.0 26.2 16.8 57 5.8 ESE 11 15 6 8 1010.1 1006.6 3.0
21/12:30am 26.9 27.0 15.6 50 7.0 ESE 9 19 5 10 1010.5 1006.9 3.0
21/12:00am 26.1 26.9 17.2 58 5.7 S 9 11 5 6 1010.6 1007.0 3.0
 
Date/Time
CST
Temp
°C
App
Temp
°C
Dew
Point
Rel
Hum
%
Delta-T
°C
Wind Press
QNH
hPa
Press
MSL
hPa
Rain
since 9 am
mm
Dir
 
Spd
km/h
Gust
km/h
Spd
kts
Gust
kts
20/11:30pm 26.0 26.7 17.1 58 5.7 SW 9 13 5 7 1011.0 1007.4 3.0
20/11:00pm 26.0 26.9 17.6 60 5.4 SSW 9 11 5 6 1011.5 1007.9 3.0
20/10:30pm 25.5 28.6 18.7 66 4.4 CALM 0 0 0 0 1011.5 1007.9 3.0
20/10:00pm 26.1 27.5 17.7 60 5.4 S 7 9 4 5 1011.6 1008.0 3.0
20/09:30pm 26.6 27.4 17.4 57 5.9 SSE 9 11 5 6 1011.4 1007.8 3.0
20/09:00pm 26.5 25.7 17.0 56 6.0 SE 17 20 9 11 1011.4 1007.8 3.0
20/08:30pm 26.7 25.6 17.2 56 6.1 SE 19 28 10 15 1011.7 1008.1 3.0
20/08:00pm 26.4 23.7 16.6 55 6.2 E 26 35 14 19 1012.1 1008.6 3.0
20/07:30pm 27.5 24.5 15.8 48 7.3 ENE 26 37 14 20 1012.3 1008.8 3.0
20/07:00pm 28.6 27.2 15.5 45 8.2 ESE 17 30 9 16 1011.9 1008.4 3.0
20/06:30pm 28.3 26.2 18.1 54 6.6 ENE 26 41 14 22 1011.6 1008.0 3.0
20/06:00pm 29.5 27.5 18.3 51 7.3 SW 26 39 14 21 1010.1 1006.6 3.0
20/05:30pm 29.2 28.5 19.5 56 6.4 SSW 22 33 12 18 1010.1 1006.6 3.0
20/05:08pm 29.1 27.9 20.0 58 6.1 WSW 26 39 14 21 1010.0 1006.5 3.0
20/05:00pm 28.2 28.2 21.0 65 4.9 WSW 22 30 12 16 1009.9 1006.3 3.0
20/04:52pm 26.5 24.9 21.9 76 3.1 SW 33 52 18 28 1009.7 1006.1 3.0
20/04:45pm 26.9 23.0 19.5 64 4.9 WSW 39 52 21 28 1009.4 1005.8 1.2
20/04:30pm 32.9 28.5 16.7 38 10.5 WSW 35 50 19 27 1009.4 1005.8 0.0
20/04:18pm 34.6 31.1 15.5 32 12.2 W 28 50 15 27 1009.2 1005.6 0.0
20/04:00pm 38.2 34.8 10.5 19 16.7 W 19 32 10 17 1009.1 1005.5 0.0
20/03:30pm 37.5 33.4 10.0 19 16.4 NW 22 30 12 16 1009.4 1005.8 0.0
20/03:00pm 39.0 35.0 10.4 18 17.3 NNW 22 33 12 18 1009.7 1006.1 0.0
20/02:30pm 37.1 34.4 10.4 20 16.0 NW 15 26 8 14 1010.4 1006.8 0.0
20/02:11pm 36.3 32.7 10.5 21 15.4 NW 20 41 11 22 1010.8 1007.2 0.0
20/02:00pm 36.3 33.3 10.5 21 15.4 WNW 17 22 9 12 1011.0 1007.4 0.0
20/01:30pm 36.9 34.2 10.2 20 15.9 N 15 30 8 16 1011.5 1007.9 0.0
20/01:00pm 36.8 34.8 10.2 20 15.9 NE 11 17 6 9 1011.9 1008.4 0.0
20/12:30pm 38.0 34.0 10.4 19 16.6 NW 22 37 12 20 1012.5 1008.9 0.0
20/12:00pm 36.4 33.8 10.6 21 15.5 NNW 15 28 8 15 1013.1 1009.5 0.0
20/11:30am 36.9 34.8 11.0 21 15.6 NNE 13 22 7 12 1013.6 1010.0 0.0
20/11:00am 35.2 31.7 10.3 22 14.8 NNE 19 28 10 15 1014.0 1010.5 0.0
20/10:30am 33.8 30.3 11.0 25 13.6 N 20 33 11 18 1014.4 1010.9 0.0
20/10:00am 33.3 29.6 10.0 24 13.6 N 20 32 11 17 1014.4 1010.9 0.0
20/09:30am 33.3 30.1 11.2 26 13.2 NNE 19 24 10 13 1014.7 1011.1 0.0
20/09:00am 32.2 29.2 10.8 27 12.6 ENE 17 28 9 15 1015.1 1011.5 0.0
20/08:30am 30.9 27.9 10.8 29 11.8 E 17 22 9 12 1015.1 1011.5 0.0

Other Formats:

Comma delimited format used in spreadsheet applications
http://www.bom.gov.au/fwo/IDD60801/IDD60801.94462.axf

JavaScript Object Notation format (JSON) in row-major order
http://www.bom.gov.au/fwo/IDD60801/IDD60801.94462.json